NOAA Weather Radio

Lightning Safety

Turn Around Don't Drown
Storm Ready
SkyWarn
WACO REGIONAL AIRPORT, TX, United States (KACT) 31-36N 97-13W 151M
Aug 02, 2015 - 07:51 PM EDT / 2015.08.02 2351 UTC
Wind: from the E (100 degrees) at 8 MPH (7 KT):0
Visibility: 10 mile(s):0
Sky conditions: clear
Temperature: 96.1 F (35.6 C)
Dew Point: 53.1 F (11.7 C)
Relative Humidity: 23%
Pressure (altimeter): 29.85 in. Hg (1010 hPa)
Pressure tendency: 0.04 inches (1.4 hPa) lower than three hours ago
ob: KACT 022351Z 10007KT 10SM CLR 36/12 A2985 RMK AO2 SLP099 T03560117 10372 20344 56014
cycle: 0